Weather observations for the past three days for
Oxnard, Oxnard Airport
Metric (Imperial)
Date Time (pdt) Wind (kph) Vis. (km) Weather Sky Cond. Temperature (ºC) Relative Humidity Wind Chill (°C) Heat Index (°C) Pressure Precipitation (cm)
Air Dwpt 6 hour altimeter (cm) sea level (mb) 1 hr 3 hr 6 hr
Max. Min.
03 17:51 W 22 16.09 Overcast OVC050 16.1 11.1 72% 76.02 1013.4
03 16:51 W 20 16.09 Mostly Cloudy BKN055 17.8 10.6 18.3 15.6 63% 75.97 1012.8
03 15:51 SW 15 16.09 Mostly Cloudy BKN055 17.8 9.4 58% 76 1013.2
03 14:51 W 13 16.09 Mostly Cloudy FEW025 BKN050 18.3 8.9 54% 76.05 1013.7
03 13:51 W 19 16.09 Overcast FEW025 OVC050 17.2 9.4 60% 76.07 1014.0
03 12:51 W 17 16.09 Overcast FEW025 OVC040 16.7 9.4 62% 76.1 1014.3
03 11:51 W 17 16.09 Overcast SCT025 OVC039 16.1 10 67% 76.1 1014.6
03 10:51 W 15 16.09 Overcast SCT022 SCT026 OVC031 15.6 10 16.7 14.4 70% 76.1 1014.6
03 09:51 SW 13 16.09 Overcast SCT025 OVC040 16.1 10.6 70% 76.1 1014.4
03 08:51 SW 6 16.09 Overcast OVC038 15.6 10.6 72% 76.07 1014.1
03 07:51 W 6 16.09 Overcast OVC031 15 10.6 75% 76.05 1013.6
03 06:51 Calm 14.48 Overcast OVC029 14.4 11.1 81% 75.97 1012.8
03 05:51 Calm 16.09 Overcast OVC029 14.4 10.6 78% 75.95 1012.3
03 03:51 W 7 16.09 Overcast OVC022 14.4 11.7 84% 75.97 1012.9
03 02:51 Calm 16.09 Overcast OVC021 14.4 11.7 84% 75.95 1012.4
03 01:51 W 9 16.09 Overcast OVC018 14.4 11.1 81% 76 1013.0
03 00:51 W 19 16.09 Overcast FEW010 OVC018 14.4 11.1 81% 76 1013.1
02 23:51 W 15 16.09 Overcast OVC016 14.4 11.7 84% 75.97 1012.8
02 22:51 W 11 16.09 Overcast OVC015 15 11.7 16.7 15 81% 75.97 1012.6
02 21:51 W 13 16.09 Overcast OVC010 15 12.2 83% 75.95 1012.4
02 20:51 W 15 16.09 Overcast OVC010 15 12.8 87% 75.87 1011.5
02 19:51 W 17 14.48 Overcast OVC013 15 12.8 87% 75.82 1010.8
02 18:51 W 9 11.27 Partly Cloudy SCT010 16.1 13.3 84% 75.79 1010.5
02 17:51 W 19 12.87 Overcast OVC010 16.1 13.3 84% 75.82 1010.7
02 16:51 W 19 12.87 Overcast OVC011 16.7 13.3 18.3 16.7 80% 75.84 1011.1
02 15:51 W 15 14.48 Overcast OVC012 17.2 12.8 76% 75.9 1011.7
02 14:51 W 19 11.27 Overcast OVC013 16.7 13.3 80% 76 1012.9
02 13:51 SW 13 14.48 Overcast OVC015 17.8 12.8 73% 76.02 1013.5
02 12:51 SW 13 12.87 Overcast OVC012 17.8 12.8 73% 76.05 1013.8
02 11:51 S 13 14.48 Overcast OVC012 17.2 12.8 76% 76.1 1014.5
02 10:51 S 7 12.87 Overcast OVC011 16.7 12.8 16.7 15 78% 76.1 1014.6
02 09:51 Calm 12.87 Overcast OVC009 16.1 12.8 81% 76.15 1014.9
02 08:51 Calm 11.27 Overcast OVC009 15.6 12.8 84% 76.12 1014.9
02 07:51 E 11 9.66 Overcast with Haze OVC009 15.6 12.8 84% 76.07 1014.1
02 06:51 E 11 9.66 Fog/Mist OVC009 15 12.8 87% 76.07 1013.9
02 05:51 SE 6 12.87 Overcast OVC008 15 12.8 87% 76.05 1013.7
02 04:51 SE 7 12.87 Overcast OVC009 15 12.8 15 13.9 87% 76.02 1013.4
02 03:51 SE 9 11.27 Overcast OVC009 15 12.8 87% 76 1013.2
02 02:51 SE 13 11.27 Overcast OVC007 15 12.8 87% 75.97 1012.8
02 01:51 S 6 11.27 Overcast OVC008 15 12.8 87% 76 1013.1
02 00:51 Calm 11.27 Fair CLR 13.9 12.2 90% 76.02 1013.5
01 23:51 Calm 12.87 Fair CLR 14.4 12.2 87% 76.02 1013.5
01 22:51 NE 9 12.87 Overcast OVC008 14.4 12.2 18.3 13.9 87% 76.02 1013.3
01 21:51 NW 9 11.27 Overcast BKN009 OVC012 13.9 12.2 90% 76.02 1013.3
01 20:51 W 22 12.87 Overcast OVC007 14.4 12.2 87% 75.97 1012.9
01 19:51 W 26 9.66 Fog/Mist OVC008 14.4 12.2 87% 75.95 1012.6
01 18:51 W 26 11.27 Partly Cloudy SCT008 15.6 12.8 84% 75.92 1012.2
01 17:51 W 24 11.27 A Few Clouds FEW008 16.7 13.3 80% 75.92 1012.1
01 16:51 W 22 12.87 Fair CLR 18.3 12.8 20 17.8 70% 75.95 1012.4
01 15:51 W 20 12.87 Fair CLR 18.9 12.8 68% 75.97 1012.8
01 14:51 W 19 G 30 11.27 Fair CLR 18.9 12.2 65% 76.02 1013.6
01 13:51 W 19 G 33 11.27 A Few Clouds FEW019 18.9 12.8 68% 76.05 1013.8
01 12:51 W 20 11.27 Partly Cloudy SCT022 19.4 12.8 66% 76.07 1014.2
01 11:51 W 19 11.27 Mostly Cloudy BKN022 19.4 12.8 66% 76.12 1014.8
01 10:51 W 11 11.27 Overcast OVC021 18.3 12.2 18.3 12.2 68% 76.15 1015.0
01 09:51 SW 11 9.66 Overcast with Haze OVC020 17.2 12.2 73% 76.15 1015.2
01 08:51 Calm 8.05 Mostly Cloudy with Haze SCT010 BKN020 16.1 12.2 78% 76.15 1015.0
01 07:51 NE 6 11.27 A Few Clouds FEW020 14.4 11.7 84% 76.12 1014.7
01 06:51 NE 7 8.05 Fog/Mist FEW018 12.8 10.6 87% 76.07 1014.2
01 05:51 NE 6 9.66 Fog/Mist CLR 12.2 11.1 93% 76.02 1013.3
01 04:51 Calm 11.27 Mostly Cloudy BKN011 BKN018 12.8 11.1 15 12.8 90% 76.02 1013.3
01 03:51 NE 6 9.66 Fog/Mist CLR 12.8 11.1 90% 76 1013.1
01 02:51 E 6 11.27 Fair CLR 12.8 11.1 90% 76 1012.9
01 01:51 E 7 9.66 Fog/Mist CLR 13.3 11.7 90% 76 1013.0
01 00:51 Calm 9.66 Fog/Mist CLR 13.9 11.7 87% 76.02 1013.4
30 23:51 W 6 9.66 Fog/Mist FEW019 14.4 12.2 87% 76 1013.1
30 22:51 S 6 9.66 A Few Clouds with Haze FEW014 15 12.2 17.8 14.4 83% 75.95 1012.4
30 21:51 W 6 9.66 Fog/Mist CLR 14.4 12.8 90% 75.92 1012.1
30 20:51 W 9 9.66 Fog/Mist CLR 14.4 12.2 87% 75.87 1011.4
30 19:51 W 13 8.05 Fog/Mist FEW012 15 12.8 87% 75.82 1010.6
30 18:51 W 15 9.66 Fair with Haze CLR 16.1 12.8 81% 75.77 1010.3
Date Time (pdt) Wind (kph) Vis. (km) Weather Sky Cond. Air Dwpt Max. Min. Relative Humidity Wind Chill (°C) Heat Index (°C) altimeter (cm) sea level (mb) 1 hr 3 hr 6 hr
6 hour
Temperature (ºC) Pressure Precipitation (cm)